Time;durP1;ratioP1;P1;durP2;ratioP2;P2;SDS_P1;SDS_P2;PMS_P1;PMS_P2;Temp;Humidity;BMP_temperature;BMP_pressure;BME280_temperature;BME280_humidity;BME280_pressure;Samples;Min_cycle;Max_cycle;Signal;HPM_P1;HPM_P2
2024/03/24 00:01:02;;;;;;;13.10;5.70;;;;;;;;;;5047045;28;20611;-52
2024/03/24 00:03:28;;;;;;;12.40;6.05;;;;;;;;;;5047257;28;20775;-49
2024/03/24 00:05:54;;;;;;;13.70;5.93;;;;;;;;;;5029402;28;20029;-53
2024/03/24 00:08:20;;;;;;;11.05;4.72;;;;;;;;;;5039504;28;20021;-53
2024/03/24 00:10:46;;;;;;;14.95;5.70;;;;;;;;;;5049212;28;20031;-49
2024/03/24 00:13:11;;;;;;;12.60;5.65;;;;;;;;;;5065415;28;20496;-52
2024/03/24 00:15:37;;;;;;;11.95;5.88;;;;;;;;;;5066779;28;20035;-52
2024/03/24 00:18:03;;;;;;;9.95;5.00;;;;;;;;;;5060969;28;20045;-52
2024/03/24 00:20:28;;;;;;;10.30;4.28;;;;;;;;;;5045569;28;20040;-52
2024/03/24 00:22:54;;;;;;;11.25;6.07;;;;;;;;;;5061756;28;20575;-54
2024/03/24 00:25:20;;;;;;;11.88;5.75;;;;;;;;;;5045409;28;20527;-53
2024/03/24 00:27:45;;;;;;;14.45;6.38;;;;;;;;;;5046925;28;20040;-53
2024/03/24 00:30:11;;;;;;;10.88;4.88;;;;;;;;;;5028816;28;20029;-52
2024/03/24 00:32:37;;;;;;;12.25;6.03;;;;;;;;;;5046951;28;20480;-51
2024/03/24 00:35:03;;;;;;;12.05;5.35;;;;;;;;;;5062121;28;20032;-50
2024/03/24 00:37:29;;;;;;;10.68;5.72;;;;;;;;;;5061951;28;20532;-53
2024/03/24 00:39:58;;;;;;;12.38;6.90;;;;;;;;;;5046199;28;20024;-52
2024/03/24 00:42:23;;;;;;;14.65;6.88;;;;;;;;;;5028659;28;20033;-52
2024/03/24 00:44:50;;;;;;;16.23;6.38;;;;;;;;;;5028644;28;20098;-52
2024/03/24 00:47:16;;;;;;;17.90;6.22;;;;;;;;;;5045040;28;20174;-53
2024/03/24 00:49:42;;;;;;;15.15;6.43;;;;;;;;;;5047331;28;20560;-52
2024/03/24 00:52:07;;;;;;;5.47;2.78;;;;;;;;;;5046650;28;20044;-48
2024/03/24 00:54:33;;;;;;;10.25;5.10;;;;;;;;;;5079820;28;20037;-50
2024/03/24 00:56:59;;;;;;;9.85;5.20;;;;;;;;;;5065078;28;20404;-52
2024/03/24 00:59:25;;;;;;;10.45;4.90;;;;;;;;;;5059286;28;20033;-49
2024/03/24 01:01:50;;;;;;;16.25;6.45;;;;;;;;;;5045259;28;20401;-50
2024/03/24 01:04:16;;;;;;;15.88;7.35;;;;;;;;;;5046760;28;20416;-51
2024/03/24 01:06:41;;;;;;;12.65;6.05;;;;;;;;;;5044995;28;20536;-51
2024/03/24 01:09:07;;;;;;;12.57;6.60;;;;;;;;;;5074700;28;20040;-49
2024/03/24 01:11:33;;;;;;;16.98;7.45;;;;;;;;;;5074172;28;20523;-50
2024/03/24 01:13:59;;;;;;;15.80;6.45;;;;;;;;;;5056994;28;20127;-56
2024/03/24 01:16:24;;;;;;;15.50;7.82;;;;;;;;;;5067064;28;20407;-52
2024/03/24 01:18:50;;;;;;;15.30;7.53;;;;;;;;;;5065057;28;20102;-49
2024/03/24 01:21:18;;;;;;;12.35;6.00;;;;;;;;;;5051108;28;20128;-53
2024/03/24 01:23:45;;;;;;;14.75;7.22;;;;;;;;;;5046427;28;20029;-52
2024/03/24 01:26:10;;;;;;;14.80;7.30;;;;;;;;;;5046290;28;20040;-55
2024/03/24 01:28:36;;;;;;;10.73;5.78;;;;;;;;;;5046167;28;20794;-53
2024/03/24 01:31:02;;;;;;;13.77;6.63;;;;;;;;;;5061486;28;20037;-53
2024/03/24 01:33:27;;;;;;;13.65;6.13;;;;;;;;;;5045777;28;20060;-49
2024/03/24 01:35:53;;;;;;;11.23;5.70;;;;;;;;;;5044156;28;20025;-51
2024/03/24 01:38:19;;;;;;;9.82;4.22;;;;;;;;;;5060931;28;20530;-55
2024/03/24 01:40:45;;;;;;;10.30;5.25;;;;;;;;;;5045600;28;20065;-50
2024/03/24 01:43:11;;;;;;;9.45;4.97;;;;;;;;;;5044088;28;20120;-53
2024/03/24 01:45:37;;;;;;;13.77;6.35;;;;;;;;;;5045582;28;20511;-55
2024/03/24 01:48:03;;;;;;;14.93;7.20;;;;;;;;;;5045657;28;20041;-49
2024/03/24 01:50:29;;;;;;;18.08;7.10;;;;;;;;;;5044952;28;20033;-56
2024/03/24 01:52:54;;;;;;;11.93;6.70;;;;;;;;;;5046803;28;20045;-54
2024/03/24 01:55:21;;;;;;;14.38;6.88;;;;;;;;;;5030805;28;20037;-51
2024/03/24 01:57:46;;;;;;;10.48;5.60;;;;;;;;;;5049293;28;20839;-49
2024/03/24 02:00:13;;;;;;;13.85;5.65;;;;;;;;;;5049774;28;20033;-51
2024/03/24 02:02:38;;;;;;;16.65;6.40;;;;;;;;;;5049575;28;20036;-52
2024/03/24 02:05:05;;;;;;;18.95;6.55;;;;;;;;;;5047829;28;20037;-51
2024/03/24 02:07:31;;;;;;;14.77;6.82;;;;;;;;;;5049752;28;20036;-55
2024/03/24 02:09:57;;;;;;;15.48;7.20;;;;;;;;;;5056698;28;20051;-51
2024/03/24 02:12:25;;;;;;;14.60;6.10;;;;;;;;;;5057747;28;20052;-49
2024/03/24 02:14:51;;;;;;;16.88;7.20;;;;;;;;;;5049155;28;20048;-48
2024/03/24 02:17:17;;;;;;;17.23;7.60;;;;;;;;;;5049222;28;20049;-55
2024/03/24 02:19:43;;;;;;;18.65;6.03;;;;;;;;;;5049446;28;20043;-55
2024/03/24 02:22:09;;;;;;;19.27;6.88;;;;;;;;;;5035686;28;20059;-53
2024/03/24 02:24:34;;;;;;;20.85;6.57;;;;;;;;;;5069316;28;20033;-54
2024/03/24 02:27:00;;;;;;;14.43;7.03;;;;;;;;;;5068959;28;20045;-53
2024/03/24 02:29:25;;;;;;;19.70;7.75;;;;;;;;;;5069065;28;20117;-48
2024/03/24 02:31:51;;;;;;;13.15;6.20;;;;;;;;;;5069172;28;20617;-52
2024/03/24 02:34:17;;;;;;;9.98;4.72;;;;;;;;;;5050793;28;20634;-52
2024/03/24 02:36:42;;;;;;;20.52;7.55;;;;;;;;;;5069045;28;20037;-56
2024/03/24 02:39:08;;;;;;;15.48;7.40;;;;;;;;;;5067864;28;20029;-55
2024/03/24 02:41:34;;;;;;;16.23;6.47;;;;;;;;;;5067816;28;20388;-54
2024/03/24 02:43:59;;;;;;;18.48;8.02;;;;;;;;;;5054551;28;20803;-53
2024/03/24 02:46:25;;;;;;;17.35;7.60;;;;;;;;;;5047804;28;20043;-49
2024/03/24 02:48:51;;;;;;;18.60;7.60;;;;;;;;;;5065310;28;20037;-52
2024/03/24 02:51:16;;;;;;;16.45;6.78;;;;;;;;;;5048500;28;20041;-56
2024/03/24 02:53:42;;;;;;;17.20;6.80;;;;;;;;;;5047362;28;20033;-52
2024/03/24 02:56:11;;;;;;;17.45;6.07;;;;;;;;;;5048764;28;20041;-54
2024/03/24 02:58:36;;;;;;;14.20;5.93;;;;;;;;;;5049288;28;20970;-52
2024/03/24 03:01:02;;;;;;;20.65;7.88;;;;;;;;;;5048929;28;20131;-51
2024/03/24 03:03:28;;;;;;;16.05;6.20;;;;;;;;;;5046728;28;20036;-55
2024/03/24 03:05:54;;;;;;;21.00;7.53;;;;;;;;;;5063636;28;20029;-54
2024/03/24 03:08:19;;;;;;;15.30;7.22;;;;;;;;;;5048377;28;20123;-53
2024/03/24 03:10:45;;;;;;;12.10;6.57;;;;;;;;;;5048027;28;20080;-55
2024/03/24 03:13:11;;;;;;;17.85;7.80;;;;;;;;;;5048550;28;20033;-52
2024/03/24 03:15:37;;;;;;;16.63;7.40;;;;;;;;;;5063650;28;21031;-56
2024/03/24 03:18:05;;;;;;;16.33;7.07;;;;;;;;;;5030351;28;20568;-55
2024/03/24 03:20:30;;;;;;;14.82;6.65;;;;;;;;;;5063979;28;20043;-54
2024/03/24 03:22:56;;;;;;;17.27;7.35;;;;;;;;;;5047990;28;20041;-50
2024/03/24 03:25:22;;;;;;;20.77;7.60;;;;;;;;;;5048180;28;20033;-50
2024/03/24 03:27:47;;;;;;;18.85;7.65;;;;;;;;;;5046759;28;20045;-52
2024/03/24 03:30:13;;;;;;;27.83;8.55;;;;;;;;;;5048064;28;20445;-55
2024/03/24 03:32:39;;;;;;;20.45;8.60;;;;;;;;;;5048075;28;20044;-57
2024/03/24 03:35:05;;;;;;;15.10;6.22;;;;;;;;;;5030199;28;20072;-53
2024/03/24 03:37:33;;;;;;;16.90;7.50;;;;;;;;;;5046703;28;20070;-55
2024/03/24 03:40:00;;;;;;;25.52;8.45;;;;;;;;;;5045704;28;20072;-53
2024/03/24 03:42:26;;;;;;;19.27;8.18;;;;;;;;;;5047544;28;20441;-50
2024/03/24 03:44:52;;;;;;;22.52;8.65;;;;;;;;;;5047835;28;20071;-51
2024/03/24 03:47:19;;;;;;;16.85;8.27;;;;;;;;;;5046452;28;20037;-53
2024/03/24 03:49:50;;;;;;;20.50;8.70;;;;;;;;;;5058396;28;20086;-54
2024/03/24 03:52:29;;;;;;;22.50;8.77;;;;;;;;;;5048759;28;20703;-55
2024/03/24 03:55:00;;;;;;;;;;;;;;;;;;5057021;28;20040;-56
2024/03/24 03:57:25;;;;;;;;;;;;;;;;;;5029695;28;19966;-53
2024/03/24 03:59:52;;;;;;;18.75;7.85;;;;;;;;;;5045812;28;20427;-51
2024/03/24 04:02:17;;;;;;;31.00;7.18;;;;;;;;;;5037249;28;20071;-53
2024/03/24 04:04:44;;;;;;;19.75;8.85;;;;;;;;;;5072008;28;20063;-52
2024/03/24 04:07:10;;;;;;;18.05;8.65;;;;;;;;;;5066956;28;20029;-54
2024/03/24 04:09:36;;;;;;;19.65;8.57;;;;;;;;;;5067359;28;20039;-56
2024/03/24 04:12:03;;;;;;;18.15;7.85;;;;;;;;;;5063637;28;20143;-50
2024/03/24 04:14:29;;;;;;;21.90;6.43;;;;;;;;;;5061884;28;20087;-52
2024/03/24 04:16:54;;;;;;;15.27;7.05;;;;;;;;;;5047170;28;20036;-51
2024/03/24 04:19:20;;;;;;;21.58;7.22;;;;;;;;;;5046875;28;20041;-53
2024/03/24 04:21:47;;;;;;;13.07;6.75;;;;;;;;;;5046788;28;20037;-53
2024/03/24 04:24:12;;;;;;;19.10;7.45;;;;;;;;;;5060448;28;20131;-56
2024/03/24 04:26:38;;;;;;;12.82;6.47;;;;;;;;;;5066970;28;20130;-52
2024/03/24 04:29:04;;;;;;;12.00;5.97;;;;;;;;;;5067152;28;20044;-49
2024/03/24 04:31:30;;;;;;;12.23;6.30;;;;;;;;;;5066244;28;20032;-53
2024/03/24 04:33:56;;;;;;;12.55;6.35;;;;;;;;;;5059608;28;20043;-51
2024/03/24 04:36:22;;;;;;;11.25;6.03;;;;;;;;;;5086984;28;20036;-53
2024/03/24 04:38:48;;;;;;;10.88;5.50;;;;;;;;;;5062761;28;20545;-52
2024/03/24 04:41:14;;;;;;;14.68;6.85;;;;;;;;;;5067716;28;20117;-52
2024/03/24 04:43:40;;;;;;;14.85;6.45;;;;;;;;;;5056282;28;20037;-49
2024/03/24 04:46:06;;;;;;;11.68;5.75;;;;;;;;;;5046354;28;20033;-50
2024/03/24 04:48:31;;;;;;;10.68;5.65;;;;;;;;;;5048069;28;20040;-51
2024/03/24 04:50:58;;;;;;;13.82;6.57;;;;;;;;;;5066599;28;20032;-56
2024/03/24 04:53:24;;;;;;;16.05;7.32;;;;;;;;;;5079554;28;20055;-52
2024/03/24 04:55:52;;;;;;;11.73;5.85;;;;;;;;;;5086203;28;20588;-53
2024/03/24 04:58:18;;;;;;;13.88;6.07;;;;;;;;;;5084921;28;20043;-55
2024/03/24 05:00:46;;;;;;;12.93;6.13;;;;;;;;;;5066862;28;20040;-52
2024/03/24 05:03:14;;;;;;;13.38;6.30;;;;;;;;;;5045267;28;20103;-53
2024/03/24 05:05:45;;;;;;;12.60;6.20;;;;;;;;;;5044635;28;20046;-50
2024/03/24 05:08:12;;;;;;;13.70;7.57;;;;;;;;;;5046193;28;20181;-52
2024/03/24 05:10:40;;;;;;;14.32;6.70;;;;;;;;;;5045392;28;20032;-49
2024/03/24 05:13:06;;;;;;;13.75;7.10;;;;;;;;;;5043754;28;20122;-54
2024/03/24 05:15:32;;;;;;;15.38;7.70;;;;;;;;;;5044810;28;20033;-52
2024/03/24 05:17:57;;;;;;;13.45;6.50;;;;;;;;;;5044703;28;20047;-54
2024/03/24 05:20:23;;;;;;;18.80;6.80;;;;;;;;;;5061278;28;20044;-57
2024/03/24 05:22:49;;;;;;;14.73;6.85;;;;;;;;;;5028310;28;20492;-54
2024/03/24 05:25:17;;;;;;;12.50;5.85;;;;;;;;;;5046005;28;20033;-52
2024/03/24 05:27:43;;;;;;;18.05;6.50;;;;;;;;;;5045867;28;20036;-55
2024/03/24 05:30:10;;;;;;;15.63;6.95;;;;;;;;;;5044503;28;20037;-49
2024/03/24 05:32:35;;;;;;;14.45;6.82;;;;;;;;;;5045428;28;20041;-55
2024/03/24 05:35:01;;;;;;;12.23;6.30;;;;;;;;;;5044636;28;20039;-52
2024/03/24 05:37:28;;;;;;;11.43;5.22;;;;;;;;;;5044447;28;20523;-55
2024/03/24 05:39:54;;;;;;;12.38;6.03;;;;;;;;;;5045852;28;20033;-54
2024/03/24 05:42:19;;;;;;;12.32;5.97;;;;;;;;;;5046034;28;20060;-53
2024/03/24 05:44:45;;;;;;;11.00;5.85;;;;;;;;;;5061206;28;20037;-52
2024/03/24 05:47:11;;;;;;;11.15;5.10;;;;;;;;;;5046097;28;20118;-52
2024/03/24 05:49:36;;;;;;;11.00;4.88;;;;;;;;;;5043846;28;20033;-54
2024/03/24 05:52:04;;;;;;;10.48;5.20;;;;;;;;;;5058103;28;20070;-52
2024/03/24 05:54:30;;;;;;;9.57;5.28;;;;;;;;;;5044399;28;20124;-54
2024/03/24 05:56:57;;;;;;;11.02;5.00;;;;;;;;;;5045452;28;20037;-49
2024/03/24 05:59:23;;;;;;;9.43;4.80;;;;;;;;;;5044041;28;20562;-51
2024/03/24 06:01:50;;;;;;;10.40;5.30;;;;;;;;;;5060756;28;20044;-49
2024/03/24 06:04:16;;;;;;;9.95;4.70;;;;;;;;;;5061101;28;20412;-49
2024/03/24 06:06:42;;;;;;;9.75;4.68;;;;;;;;;;5061000;28;20132;-50
2024/03/24 06:09:09;;;;;;;10.10;5.38;;;;;;;;;;5056226;28;20181;-55
2024/03/24 06:11:35;;;;;;;11.02;5.43;;;;;;;;;;5063758;28;20702;-52
2024/03/24 06:14:01;;;;;;;10.50;5.25;;;;;;;;;;5046578;28;20037;-53
2024/03/24 06:16:27;;;;;;;10.05;4.85;;;;;;;;;;5063565;28;20131;-50
2024/03/24 06:18:53;;;;;;;8.20;4.20;;;;;;;;;;5060260;28;20501;-56
2024/03/24 06:21:19;;;;;;;9.85;5.10;;;;;;;;;;5063375;28;20036;-54
2024/03/24 06:23:44;;;;;;;9.93;5.22;;;;;;;;;;5051465;28;20033;-55
2024/03/24 06:26:10;;;;;;;11.43;4.93;;;;;;;;;;5027775;28;20033;-50
2024/03/24 06:28:36;;;;;;;12.98;5.82;;;;;;;;;;5043568;28;20033;-50
2024/03/24 06:31:02;;;;;;;10.63;4.97;;;;;;;;;;5027025;28;20029;-49
2024/03/24 06:33:29;;;;;;;11.43;5.32;;;;;;;;;;5045056;28;20037;-52
2024/03/24 06:35:55;;;;;;;11.63;5.55;;;;;;;;;;5044582;28;20033;-50
2024/03/24 06:38:21;;;;;;;11.15;5.00;;;;;;;;;;5047928;28;20033;-54
2024/03/24 06:40:46;;;;;;;12.10;6.30;;;;;;;;;;5048907;28;20033;-54
2024/03/24 06:43:22;;;;;;;10.63;5.15;;;;;;;;;;5048614;28;20036;-56
2024/03/24 06:45:49;;;;;;;12.63;5.75;;;;;;;;;;5046940;28;20095;-51
2024/03/24 06:48:15;;;;;;;13.55;6.05;;;;;;;;;;5047021;28;20052;-52
2024/03/24 06:50:42;;;;;;;11.00;5.55;;;;;;;;;;5054025;28;20036;-52
2024/03/24 06:53:08;;;;;;;14.23;6.15;;;;;;;;;;5067441;28;20189;-54
2024/03/24 06:55:33;;;;;;;10.75;5.65;;;;;;;;;;5067118;28;20036;-49
2024/03/24 06:57:59;;;;;;;12.20;6.10;;;;;;;;;;5067058;28;20032;-51
2024/03/24 07:00:24;;;;;;;14.80;6.53;;;;;;;;;;5068059;28;20249;-55
2024/03/24 07:02:50;;;;;;;12.73;6.97;;;;;;;;;;5048046;28;20024;-57
2024/03/24 07:05:16;;;;;;;15.68;7.18;;;;;;;;;;5048540;28;20135;-54
2024/03/24 07:07:42;;;;;;;17.05;7.30;;;;;;;;;;5048536;28;20056;-55
2024/03/24 07:10:08;;;;;;;17.25;8.25;;;;;;;;;;5059438;28;20063;-52
2024/03/24 07:12:35;;;;;;;14.98;7.18;;;;;;;;;;5049956;28;20068;-51
2024/03/24 07:15:01;;;;;;;16.98;8.35;;;;;;;;;;5050218;28;20044;-54
2024/03/24 07:17:27;;;;;;;17.90;7.93;;;;;;;;;;5066884;28;20029;-52
2024/03/24 07:19:55;;;;;;;18.40;7.72;;;;;;;;;;5068196;28;20040;-52
2024/03/24 07:22:21;;;;;;;17.45;7.97;;;;;;;;;;5058679;28;20029;-55
2024/03/24 07:24:47;;;;;;;14.38;7.60;;;;;;;;;;5047997;28;20040;-58
2024/03/24 07:27:12;;;;;;;18.98;7.70;;;;;;;;;;5047905;28;20119;-53
2024/03/24 07:29:40;;;;;;;15.63;7.65;;;;;;;;;;5063637;28;20045;-53
2024/03/24 07:32:09;;;;;;;17.17;8.32;;;;;;;;;;5048334;28;20071;-54
2024/03/24 07:34:35;;;;;;;20.10;8.07;;;;;;;;;;5058073;28;20049;-55
2024/03/24 07:37:01;;;;;;;17.00;7.93;;;;;;;;;;5047884;28;20037;-54
2024/03/24 07:39:27;;;;;;;14.63;7.78;;;;;;;;;;5063427;28;20082;-55
2024/03/24 07:41:52;;;;;;;16.55;7.32;;;;;;;;;;5075198;28;20032;-53
2024/03/24 07:44:19;;;;;;;14.77;7.63;;;;;;;;;;5050733;28;20056;-57
2024/03/24 07:46:45;;;;;;;14.25;7.03;;;;;;;;;;5046878;28;20124;-52
2024/03/24 07:49:11;;;;;;;16.40;7.55;;;;;;;;;;5054347;28;20036;-56
2024/03/24 07:51:37;;;;;;;16.02;7.20;;;;;;;;;;5067829;28;20182;-52
2024/03/24 07:54:03;;;;;;;20.90;7.88;;;;;;;;;;5055005;28;20583;-54
2024/03/24 07:56:29;;;;;;;14.65;7.28;;;;;;;;;;5048017;28;20050;-51
2024/03/24 07:58:54;;;;;;;15.75;6.90;;;;;;;;;;5063313;28;20078;-55
2024/03/24 08:01:20;;;;;;;12.77;6.68;;;;;;;;;;5047519;28;20527;-51
2024/03/24 08:03:46;;;;;;;17.55;7.65;;;;;;;;;;5051638;28;20102;-51
2024/03/24 08:06:12;;;;;;;16.13;8.07;;;;;;;;;;5056822;28;20037;-54
2024/03/24 08:08:38;;;;;;;16.38;6.75;;;;;;;;;;5047245;28;20039;-56
2024/03/24 08:11:03;;;;;;;15.52;6.65;;;;;;;;;;5062474;28;20029;-52
2024/03/24 08:13:29;;;;;;;15.13;7.22;;;;;;;;;;5047082;28;20033;-57
2024/03/24 08:15:55;;;;;;;14.07;7.45;;;;;;;;;;5047289;28;20096;-52
2024/03/24 08:18:20;;;;;;;15.75;6.85;;;;;;;;;;5048577;28;20029;-54
2024/03/24 08:20:47;;;;;;;16.80;7.45;;;;;;;;;;5067070;28;20393;-52
2024/03/24 08:23:13;;;;;;;14.45;7.20;;;;;;;;;;5067354;28;20115;-50
2024/03/24 08:25:39;;;;;;;14.18;7.25;;;;;;;;;;5048486;28;20100;-56
2024/03/24 08:28:04;;;;;;;18.17;8.00;;;;;;;;;;5082697;28;20439;-53
2024/03/24 08:30:31;;;;;;;14.75;7.28;;;;;;;;;;5067421;28;20040;-51
2024/03/24 08:32:57;;;;;;;15.15;7.15;;;;;;;;;;5049644;28;20036;-53
2024/03/24 08:35:23;;;;;;;17.73;7.95;;;;;;;;;;5053412;28;20579;-53
2024/03/24 08:37:50;;;;;;;19.80;9.20;;;;;;;;;;5047037;28;20041;-51
2024/03/24 08:40:15;;;;;;;21.70;8.48;;;;;;;;;;5045867;28;20040;-52
2024/03/24 08:42:41;;;;;;;19.45;8.93;;;;;;;;;;5045776;28;20036;-52
2024/03/24 08:45:07;;;;;;;19.63;9.05;;;;;;;;;;5047474;28;20415;-55
2024/03/24 08:47:33;;;;;;;23.27;9.98;;;;;;;;;;5046125;28;20044;-53
2024/03/24 08:49:58;;;;;;;20.40;9.32;;;;;;;;;;5063489;28;20041;-51
2024/03/24 08:52:25;;;;;;;26.38;10.13;;;;;;;;;;5046880;28;20083;-53
2024/03/24 08:54:51;;;;;;;21.50;10.77;;;;;;;;;;5045875;28;20178;-48
2024/03/24 08:57:16;;;;;;;22.67;9.65;;;;;;;;;;5066961;28;20121;-54
2024/03/24 08:59:42;;;;;;;18.52;9.30;;;;;;;;;;5066706;28;20036;-52
2024/03/24 09:02:08;;;;;;;19.17;9.63;;;;;;;;;;5065172;28;20029;-53
2024/03/24 09:04:34;;;;;;;23.45;10.43;;;;;;;;;;5048415;28;20038;-52
2024/03/24 09:06:59;;;;;;;21.85;10.82;;;;;;;;;;5050526;28;20033;-49
2024/03/24 09:09:25;;;;;;;18.10;8.68;;;;;;;;;;5082014;28;20032;-49
2024/03/24 09:11:51;;;;;;;17.92;8.98;;;;;;;;;;5066506;28;20043;-48
2024/03/24 09:14:16;;;;;;;16.42;7.63;;;;;;;;;;5065214;28;20028;-49
2024/03/24 09:16:42;;;;;;;16.40;8.10;;;;;;;;;;5064162;28;20888;-50
2024/03/24 09:19:08;;;;;;;24.70;9.18;;;;;;;;;;5066513;28;20060;-55
2024/03/24 09:21:36;;;;;;;20.73;9.63;;;;;;;;;;5064884;28;20485;-50
2024/03/24 09:24:03;;;;;;;20.20;8.10;;;;;;;;;;5048414;28;20356;-48
2024/03/24 09:26:29;;;;;;;19.67;7.38;;;;;;;;;;5058743;28;20028;-52
2024/03/24 09:28:54;;;;;;;18.42;8.32;;;;;;;;;;5061421;28;20095;-47
2024/03/24 09:31:22;;;;;;;17.85;7.70;;;;;;;;;;5044677;28;20091;-53
2024/03/24 09:33:48;;;;;;;13.93;6.93;;;;;;;;;;5046134;28;20040;-48
2024/03/24 09:36:16;;;;;;;17.50;7.60;;;;;;;;;;5044716;28;20504;-52
2024/03/24 09:38:44;;;;;;;16.70;7.70;;;;;;;;;;5052029;28;20028;-50
2024/03/24 09:41:10;;;;;;;13.60;6.28;;;;;;;;;;5064867;28;20040;-51
2024/03/24 09:43:36;;;;;;;19.55;7.85;;;;;;;;;;5066111;28;20036;-49
2024/03/24 09:46:02;;;;;;;15.00;6.85;;;;;;;;;;5031515;28;20123;-46
2024/03/24 09:48:28;;;;;;;17.08;7.45;;;;;;;;;;5051515;28;20640;-49
2024/03/24 09:50:56;;;;;;;19.92;8.25;;;;;;;;;;5065945;28;20036;-53
2024/03/24 09:53:21;;;;;;;20.42;8.65;;;;;;;;;;5047662;28;20127;-52
2024/03/24 09:55:51;;;;;;;17.50;7.72;;;;;;;;;;5065780;28;20135;-52
2024/03/24 09:58:20;;;;;;;17.17;7.70;;;;;;;;;;5061086;28;20102;-51
2024/03/24 10:00:46;;;;;;;12.65;6.72;;;;;;;;;;5045868;28;20251;-48
2024/03/24 10:03:12;;;;;;;16.17;6.90;;;;;;;;;;5044146;28;20158;-50
2024/03/24 10:05:38;;;;;;;17.83;8.00;;;;;;;;;;5045688;28;20198;-47
2024/03/24 10:08:04;;;;;;;17.08;7.55;;;;;;;;;;5046040;28;20044;-53
2024/03/24 10:10:30;;;;;;;14.30;6.75;;;;;;;;;;5046176;28;20040;-48
2024/03/24 10:12:57;;;;;;;16.50;7.88;;;;;;;;;;5047728;28;20037;-49
2024/03/24 10:15:24;;;;;;;20.50;7.43;;;;;;;;;;5048106;28;20083;-52
2024/03/24 10:18:06;;;;;;;20.67;7.55;;;;;;;;;;5049149;28;20033;-54
2024/03/24 10:20:35;;;;;;;16.08;7.55;;;;;;;;;;5049767;28;20154;-52
2024/03/24 10:23:01;;;;;;;16.05;7.82;;;;;;;;;;5031683;28;20542;-46
2024/03/24 10:25:28;;;;;;;13.70;6.60;;;;;;;;;;5064941;28;20044;-51
2024/03/24 10:27:55;;;;;;;15.55;6.38;;;;;;;;;;5015451;28;20041;-55
2024/03/24 10:30:21;;;;;;;12.00;5.63;;;;;;;;;;5064914;28;20044;-51
2024/03/24 10:32:46;;;;;;;14.95;7.03;;;;;;;;;;5062319;28;20066;-51
2024/03/24 10:35:13;;;;;;;17.00;7.47;;;;;;;;;;5056377;28;20045;-51
2024/03/24 10:37:39;;;;;;;17.77;8.23;;;;;;;;;;5047512;28;20043;-52
2024/03/24 10:40:05;;;;;;;12.88;6.75;;;;;;;;;;5047670;28;20037;-51
2024/03/24 10:42:34;;;;;;;12.90;7.07;;;;;;;;;;5047625;28;20045;-52
2024/03/24 10:45:03;;;;;;;16.35;7.15;;;;;;;;;;5074190;28;20452;-54
2024/03/24 10:47:29;;;;;;;;;;;;;;;;;;5060859;28;20051;-53
2024/03/24 10:49:57;;;;;;;21.33;8.02;;;;;;;;;;5053535;28;20483;-52
2024/03/24 10:52:23;;;;;;;17.70;8.02;;;;;;;;;;5048241;28;20121;-47
2024/03/24 10:54:50;;;;;;;17.20;8.90;;;;;;;;;;5047083;28;20055;-49
2024/03/24 10:57:17;;;;;;;21.58;9.15;;;;;;;;;;5030587;28;20380;-46
2024/03/24 10:59:43;;;;;;;18.35;8.35;;;;;;;;;;5048823;28;20037;-48
2024/03/24 11:02:13;;;;;;;14.52;8.32;;;;;;;;;;5048266;28;20025;-48
2024/03/24 11:04:40;;;;;;;17.80;8.27;;;;;;;;;;5060139;28;20039;-49
2024/03/24 11:07:06;;;;;;;19.75;8.15;;;;;;;;;;5066892;28;20721;-48
2024/03/24 11:09:32;;;;;;;17.30;7.60;;;;;;;;;;5067195;28;20045;-48
2024/03/24 11:11:58;;;;;;;18.95;8.63;;;;;;;;;;5059160;28;20045;-53
2024/03/24 11:14:24;;;;;;;18.67;8.32;;;;;;;;;;5048519;28;20047;-49
2024/03/24 11:16:53;;;;;;;20.55;9.30;;;;;;;;;;5046866;28;20033;-49
2024/03/24 11:19:24;;;;;;;16.77;8.93;;;;;;;;;;5048457;28;20037;-51
2024/03/24 11:21:50;;;;;;;16.77;7.45;;;;;;;;;;5048082;28;20040;-53
2024/03/24 11:24:26;;;;;;;14.73;7.63;;;;;;;;;;5055612;28;20127;-52
2024/03/24 11:26:52;;;;;;;18.83;9.10;;;;;;;;;;5072117;28;20046;-52
2024/03/24 11:29:36;;;;;;;18.13;8.57;;;;;;;;;;5067784;28;20504;-53
2024/03/24 11:32:02;;;;;;;17.77;9.35;;;;;;;;;;5063545;28;20029;-54
2024/03/24 11:34:28;;;;;;;17.75;8.55;;;;;;;;;;5051065;28;20044;-51
2024/03/24 11:36:54;;;;;;;16.00;8.48;;;;;;;;;;5067692;28;20419;-52
2024/03/24 11:39:20;;;;;;;18.55;8.63;;;;;;;;;;5067644;28;20041;-49
2024/03/24 11:41:52;;;;;;;14.85;7.72;;;;;;;;;;5066258;28;20401;-49
2024/03/24 11:44:18;;;;;;;19.35;8.18;;;;;;;;;;5049060;28;20500;-52
2024/03/24 11:46:59;;;;;;;17.73;8.35;;;;;;;;;;5049953;28;20127;-49
2024/03/24 11:49:28;;;;;;;15.23;7.13;;;;;;;;;;5065903;28;20037;-51
2024/03/24 11:51:54;;;;;;;14.10;7.65;;;;;;;;;;5048054;28;20103;-57
2024/03/24 11:54:20;;;;;;;16.83;7.68;;;;;;;;;;5046065;28;20045;-47
2024/03/24 11:56:45;;;;;;;20.33;8.57;;;;;;;;;;5046201;28;20128;-49
2024/03/24 11:59:15;;;;;;;13.07;6.93;;;;;;;;;;5046382;28;20090;-47
2024/03/24 12:01:40;;;;;;;15.38;7.13;;;;;;;;;;5046210;28;20447;-52
2024/03/24 12:04:06;;;;;;;16.35;6.97;;;;;;;;;;5047164;28;20036;-47
2024/03/24 12:06:32;;;;;;;15.60;7.22;;;;;;;;;;5046041;28;20029;-49
2024/03/24 12:08:58;;;;;;;15.43;7.00;;;;;;;;;;5047655;28;20047;-47
2024/03/24 12:11:25;;;;;;;13.77;6.90;;;;;;;;;;5047527;28;20500;-47
2024/03/24 12:13:51;;;;;;;16.10;7.07;;;;;;;;;;5045612;28;20037;-46
2024/03/24 12:16:18;;;;;;;15.93;7.82;;;;;;;;;;5045741;28;20040;-47
2024/03/24 12:18:45;;;;;;;15.05;7.95;;;;;;;;;;5046726;28;20029;-50
2024/03/24 12:21:11;;;;;;;13.38;7.35;;;;;;;;;;5046826;28;20051;-48
2024/03/24 12:23:37;;;;;;;13.57;6.25;;;;;;;;;;5028674;28;20031;-53
2024/03/24 12:26:04;;;;;;;13.18;7.13;;;;;;;;;;5035406;28;20534;-48
2024/03/24 12:28:33;;;;;;;14.07;7.35;;;;;;;;;;5064682;28;20557;-57
2024/03/24 12:30:59;;;;;;;13.90;6.68;;;;;;;;;;5032460;28;20093;-50
2024/03/24 12:33:27;;;;;;;12.85;6.93;;;;;;;;;;5068361;28;20085;-51
2024/03/24 12:35:54;;;;;;;12.80;7.22;;;;;;;;;;5072278;28;20032;-49
2024/03/24 12:38:23;;;;;;;20.90;6.88;;;;;;;;;;5073225;28;20043;-49
2024/03/24 12:40:52;;;;;;;13.13;6.70;;;;;;;;;;5069468;28;20043;-51
2024/03/24 12:43:19;;;;;;;13.27;6.63;;;;;;;;;;5077444;28;20574;-48
2024/03/24 12:45:54;;;;;;;14.35;6.43;;;;;;;;;;5071509;28;20499;-49
2024/03/24 12:48:28;;;;;;;12.68;6.82;;;;;;;;;;5075724;28;20032;-50
2024/03/24 12:50:59;;;;;;;14.60;6.88;;;;;;;;;;5074895;28;20153;-47
2024/03/24 12:53:47;;;;;;;12.57;6.88;;;;;;;;;;5071750;28;20062;-48
2024/03/24 12:56:15;;;;;;;15.40;6.95;;;;;;;;;;5068127;28;20032;-53
2024/03/24 12:58:42;;;;;;;12.87;6.83;;;;;;;;;;5059087;28;20037;-49
2024/03/24 13:01:09;;;;;;;11.02;6.25;;;;;;;;;;5071714;28;20040;-51
2024/03/24 13:03:35;;;;;;;11.80;6.00;;;;;;;;;;5066435;28;20028;-50
2024/03/24 13:06:21;;;;;;;11.20;4.82;;;;;;;;;;5047852;28;20060;-46
2024/03/24 13:08:49;;;;;;;13.82;7.05;;;;;;;;;;5065534;28;20048;-52
2024/03/24 13:11:16;;;;;;;13.10;6.85;;;;;;;;;;5047669;28;20123;-51
2024/03/24 13:13:43;;;;;;;12.02;6.35;;;;;;;;;;5065654;28;20119;-49
2024/03/24 13:16:16;;;;;;;10.77;5.45;;;;;;;;;;5058217;28;20479;-48
2024/03/24 13:18:48;;;;;;;10.27;5.55;;;;;;;;;;5048182;28;20036;-49
2024/03/24 13:21:21;;;;;;;11.48;6.50;;;;;;;;;;5064942;28;20044;-48
2024/03/24 13:23:48;;;;;;;17.10;9.23;;;;;;;;;;5048033;28;20068;-50
2024/03/24 13:26:18;;;;;;;11.02;5.55;;;;;;;;;;5047790;28;20131;-53
2024/03/24 13:28:47;;;;;;;11.80;6.07;;;;;;;;;;5066171;28;20033;-47
2024/03/24 13:31:13;;;;;;;8.93;5.07;;;;;;;;;;5047838;28;20025;-50
2024/03/24 13:33:38;;;;;;;11.15;5.72;;;;;;;;;;5065859;28;20085;-50
2024/03/24 13:36:06;;;;;;;11.20;5.93;;;;;;;;;;5053220;28;20041;-48
2024/03/24 13:38:48;;;;;;;8.50;4.95;;;;;;;;;;5044147;28;20512;-50
2024/03/24 13:41:17;;;;;;;11.10;6.13;;;;;;;;;;5044511;28;20033;-46
2024/03/24 13:43:43;;;;;;;10.43;5.90;;;;;;;;;;5061441;28;20033;-51
2024/03/24 13:46:24;;;;;;;9.48;5.38;;;;;;;;;;5044419;28;20041;-49
2024/03/24 13:48:52;;;;;;;10.50;6.30;;;;;;;;;;5047874;28;20021;-49
2024/03/24 13:51:20;;;;;;;8.00;4.70;;;;;;;;;;5065242;28;20040;-51
2024/03/24 13:53:50;;;;;;;10.60;5.15;;;;;;;;;;5049333;28;20416;-50
2024/03/24 13:56:16;;;;;;;9.63;5.10;;;;;;;;;;5038400;28;20086;-49
2024/03/24 13:58:44;;;;;;;9.88;5.68;;;;;;;;;;5069846;28;20466;-50
2024/03/24 14:01:10;;;;;;;7.70;5.30;;;;;;;;;;5069882;28;20124;-47
2024/03/24 14:03:36;;;;;;;9.02;5.35;;;;;;;;;;5069798;28;20123;-50
2024/03/24 14:06:02;;;;;;;16.02;6.22;;;;;;;;;;5049538;28;20411;-49
2024/03/24 14:08:30;;;;;;;7.47;4.05;;;;;;;;;;5049786;28;20159;-49
2024/03/24 14:10:56;;;;;;;8.52;5.00;;;;;;;;;;5049720;28;20152;-50
2024/03/24 14:13:22;;;;;;;7.25;4.43;;;;;;;;;;5048629;28;20068;-49
2024/03/24 14:15:54;;;;;;;8.27;4.72;;;;;;;;;;5048420;28;20037;-50
2024/03/24 14:18:35;;;;;;;7.72;4.22;;;;;;;;;;5060379;28;20090;-51
2024/03/24 14:21:04;;;;;;;8.50;5.03;;;;;;;;;;5069174;28;20523;-50
2024/03/24 14:23:32;;;;;;;9.65;3.75;;;;;;;;;;5067968;28;20056;-55
2024/03/24 14:25:59;;;;;;;7.65;4.18;;;;;;;;;;5070046;28;20141;-52
2024/03/24 14:28:28;;;;;;;6.25;4.43;;;;;;;;;;5054728;28;20123;-50